Time;durP1;ratioP1;P1;durP2;ratioP2;P2;SDS_P1;SDS_P2;PMS_P1;PMS_P2;Temp;Humidity;BMP_temperature;BMP_pressure;BME280_temperature;BME280_humidity;BME280_pressure;Samples;Min_cycle;Max_cycle;Signal;HPM_P1;HPM_P2
2022/11/15 00:00:58;;;;;;;8.33;3.67;;;;;;;8.22;100.00;96171.81;5059396;28;20235;-70
2022/11/15 00:03:26;;;;;;;6.90;4.03;;;;;;;8.23;100.00;96171.63;5058290;28;20677;-70
2022/11/15 00:05:55;;;;;;;9.53;3.93;;;;;;;8.24;100.00;96175.91;5064147;28;20203;-70
2022/11/15 00:08:21;;;;;;;7.73;3.93;;;;;;;8.17;100.00;96166.22;5066761;28;20251;-69
2022/11/15 00:10:55;;;;;;;7.63;4.17;;;;;;;8.29;100.00;96170.97;5062269;28;20668;-70
2022/11/15 00:13:22;;;;;;;8.43;4.20;;;;;;;8.18;100.00;96170.50;5069377;28;20211;-70
2022/11/15 00:15:48;;;;;;;7.90;4.20;;;;;;;8.20;100.00;96163.28;5058034;28;20215;-70
2022/11/15 00:18:16;;;;;;;7.97;4.30;;;;;;;8.21;100.00;96164.91;5059043;28;20396;-69
2022/11/15 00:20:42;;;;;;;6.67;3.67;;;;;;;8.10;100.00;96160.78;5059002;28;20224;-70
2022/11/15 00:23:10;;;;;;;8.33;4.07;;;;;;;8.15;100.00;96166.38;5058070;28;20209;-70
2022/11/15 00:25:37;;;;;;;6.40;3.80;;;;;;;8.15;100.00;96158.50;5058773;28;20211;-69
2022/11/15 00:28:03;;;;;;;8.63;4.23;;;;;;;8.13;100.00;96172.75;5058952;28;20240;-70
2022/11/15 00:30:30;;;;;;;7.60;4.07;;;;;;;8.13;100.00;96164.88;5061386;28;20196;-70
2022/11/15 00:32:57;;;;;;;6.60;3.60;;;;;;;8.13;100.00;96164.88;5058155;28;20215;-69
2022/11/15 00:35:23;;;;;;;6.93;3.83;;;;;;;8.13;100.00;96162.25;5058406;28;20225;-70
2022/11/15 00:37:50;;;;;;;8.80;3.80;;;;;;;8.15;100.00;96168.19;5058256;28;20217;-70
2022/11/15 00:40:18;;;;;;;9.27;4.20;;;;;;;8.20;100.00;96158.84;5058216;28;20205;-70
2022/11/15 00:42:44;;;;;;;8.03;3.77;;;;;;;8.13;100.00;96154.38;5057850;28;20869;-70
2022/11/15 00:45:11;;;;;;;6.57;3.70;;;;;;;8.13;100.00;96149.13;5059132;28;20204;-69
2022/11/15 00:47:37;;;;;;;7.67;3.53;;;;;;;8.06;100.00;96151.59;5066324;28;20243;-70
2022/11/15 00:50:05;;;;;;;6.93;3.93;;;;;;;8.15;100.00;96142.78;5058925;28;20209;-70
2022/11/15 00:52:31;;;;;;;12.33;3.50;;;;;;;8.07;100.00;96142.75;5066192;28;20208;-70
2022/11/15 00:54:58;;;;;;;8.17;3.57;;;;;;;8.06;100.00;96130.59;5058216;28;20207;-70
2022/11/15 00:57:26;;;;;;;9.43;3.70;;;;;;;8.11;100.00;96128.31;5066404;28;20233;-70
2022/11/15 00:59:52;;;;;;;6.40;3.33;;;;;;;8.06;100.00;96130.59;5059407;28;20212;-70
2022/11/15 01:02:19;;;;;;;6.23;3.30;;;;;;;8.03;100.00;96127.47;5057579;28;20228;-70
2022/11/15 01:04:45;;;;;;;6.67;3.20;;;;;;;8.05;100.00;96122.91;5057488;28;20204;-70
2022/11/15 01:07:12;;;;;;;6.00;3.47;;;;;;;8.02;100.00;96115.38;5058247;28;20236;-69
2022/11/15 01:09:38;;;;;;;8.70;3.97;;;;;;;7.98;100.00;96114.03;5058141;28;20200;-69
2022/11/15 01:12:05;;;;;;;6.93;3.47;;;;;;;7.93;100.00;96116.34;5057542;28;20739;-70
2022/11/15 01:14:33;;;;;;;7.67;3.60;;;;;;;7.88;100.00;96116.03;5057873;28;20215;-70
2022/11/15 01:17:00;;;;;;;10.30;4.17;;;;;;;7.81;100.00;96112.38;5057603;28;20243;-70
2022/11/15 01:19:26;;;;;;;6.60;3.47;;;;;;;7.72;100.00;96102.06;5057566;28;20208;-70
2022/11/15 01:21:53;;;;;;;9.20;4.07;;;;;;;7.49;100.00;96096.63;5057760;28;20235;-70
2022/11/15 01:24:19;;;;;;;4.73;3.30;;;;;;;7.38;100.00;96091.69;5061200;28;20204;-69
2022/11/15 01:26:46;;;;;;;7.80;3.60;;;;;;;7.43;100.00;96089.41;5056808;28;20215;-70
2022/11/15 01:29:12;;;;;;;8.17;3.17;;;;;;;7.51;100.00;96091.22;5058100;28;20216;-70
2022/11/15 01:31:40;;;;;;;5.60;3.00;;;;;;;7.42;100.00;96090.41;5057508;28;20197;-70
2022/11/15 01:34:07;;;;;;;5.07;2.93;;;;;;;7.35;100.00;96088.56;5056545;28;20219;-69
2022/11/15 01:36:33;;;;;;;5.83;3.07;;;;;;;7.31;100.00;96093.31;5057368;28;20695;-70
2022/11/15 01:39:00;;;;;;;6.33;3.17;;;;;;;7.29;100.00;96090.06;5058143;28;20208;-70
2022/11/15 01:41:29;;;;;;;5.77;3.10;;;;;;;7.26;100.00;96093.97;5057418;28;20722;-70
2022/11/15 01:43:58;;;;;;;5.60;2.87;;;;;;;7.20;100.00;96084.13;5056894;28;20209;-70
2022/11/15 01:46:29;;;;;;;6.10;3.10;;;;;;;7.27;100.00;96093.81;5057776;28;20208;-70
2022/11/15 01:49:01;;;;;;;5.67;3.20;;;;;;;7.28;100.00;96088.41;5056897;28;20728;-70
2022/11/15 01:51:31;;;;;;;6.37;3.63;;;;;;;7.14;100.00;96096.06;5057390;28;20201;-70
2022/11/15 01:54:03;;;;;;;9.33;3.90;;;;;;;7.18;100.00;96099.16;5056351;28;20208;-70
2022/11/15 01:56:33;;;;;;;10.20;4.03;;;;;;;7.10;100.00;96096.53;5057223;28;20912;-70
2022/11/15 01:59:04;;;;;;;7.43;3.57;;;;;;;7.02;100.00;96094.69;5057159;28;20211;-70
2022/11/15 02:01:33;;;;;;;6.63;3.57;;;;;;;6.94;100.00;96093.88;5057599;28;20220;-69
2022/11/15 02:04:04;;;;;;;6.27;3.80;;;;;;;7.02;100.00;96080.81;5055980;28;20564;-70
2022/11/15 02:06:31;;;;;;;8.67;4.00;;;;;;;6.83;100.00;96075.81;5056720;28;20992;-69
2022/11/15 02:08:58;;;;;;;8.17;4.00;;;;;;;6.79;100.00;96069.25;5062135;28;20227;-70
2022/11/15 02:11:25;;;;;;;8.57;4.40;;;;;;;6.78;100.00;96073.69;5060699;28;20200;-69
2022/11/15 02:13:52;;;;;;;6.63;4.00;;;;;;;6.78;100.00;96070.22;5059660;28;20699;-70
2022/11/15 02:16:32;;;;;;;8.53;4.10;;;;;;;6.93;100.00;96074.69;5060744;28;20204;-70
2022/11/15 02:19:19;;;;;;;7.53;3.63;;;;;;;6.91;100.00;96073.22;5057201;28;20234;-71
2022/11/15 02:21:59;;;;;;;8.03;3.73;;;;;;;6.93;100.00;96063.41;5056822;28;20209;-69
2022/11/15 02:24:56;;;;;;;6.83;3.63;;;;;;;6.75;100.00;96065.31;5064068;28;20747;-70
2022/11/15 02:28:02;;;;;;;5.93;3.40;;;;;;;6.44;100.00;96065.97;5056576;28;20229;-69
2022/11/15 02:30:39;;;;;;;5.37;2.97;;;;;;;6.46;100.00;96066.66;5030690;28;20813;-70
2022/11/15 02:33:21;;;;;;;5.57;2.77;;;;;;;6.42;100.00;96063.53;5058092;28;20482;-70
2022/11/15 02:35:57;;;;;;;4.40;2.83;;;;;;;6.46;100.00;96057.00;5056705;28;20204;-70
2022/11/15 02:38:33;;;;;;;4.57;2.90;;;;;;;6.33;100.00;96059.22;5058447;28;20231;-69
2022/11/15 02:41:03;;;;;;;4.93;2.70;;;;;;;6.26;100.00;96058.22;5060761;28;20587;-69
2022/11/15 02:47:12;;;;;;;5.43;3.00;;;;;;;6.28;100.00;96052.84;5060736;28;20254;-69
2022/11/15 02:49:15;;;;;;;5.73;3.03;;;;;;;6.18;100.00;96041.66;5068456;28;20566;-70
2022/11/15 02:51:45;;;;;;;4.23;2.57;;;;;;;6.19;100.00;96036.25;5060708;28;20204;-70
2022/11/15 02:54:14;;;;;;;5.67;2.83;;;;;;;6.04;100.00;96027.34;5068074;28;20201;-70
2022/11/15 02:56:42;;;;;;;5.30;2.93;;;;;;;5.74;100.00;96033.97;5060862;28;20205;-70
2022/11/15 02:59:21;;;;;;;4.20;2.73;;;;;;;5.98;100.00;96040.22;5060121;28;20216;-70
2022/11/15 03:02:06;;;;;;;7.23;2.77;;;;;;;5.82;100.00;96042.72;5060338;28;20220;-70
2022/11/15 03:04:44;;;;;;;9.50;3.10;;;;;;;5.87;100.00;96031.78;5060372;28;20204;-69
2022/11/15 03:07:23;;;;;;;6.20;2.90;;;;;;;5.83;100.00;96033.09;5060418;28;20220;-69
2022/11/15 03:09:55;;;;;;;6.53;3.30;;;;;;;5.76;100.00;96030.25;5057898;28;20200;-70
2022/11/15 03:12:33;;;;;;;10.27;3.20;;;;;;;5.68;100.00;96034.59;5059545;28;20677;-69
2022/11/15 03:15:06;;;;;;;4.47;2.73;;;;;;;5.65;100.00;96032.25;5067529;28;20220;-69
2022/11/15 03:17:39;;;;;;;7.13;3.30;;;;;;;5.75;100.00;96030.38;5059762;28;20228;-69
2022/11/15 03:20:08;;;;;;;6.80;3.30;;;;;;;5.56;100.00;96022.72;5060939;28;20208;-70
2022/11/15 03:22:39;;;;;;;5.70;3.17;;;;;;;5.50;100.00;96020.75;5059448;28;20235;-69
2022/11/15 03:25:09;;;;;;;7.67;3.67;;;;;;;5.64;100.00;96020.19;5060033;28;20212;-70
2022/11/15 03:27:40;;;;;;;6.33;3.13;;;;;;;5.64;100.00;96020.19;5060292;28;20228;-69
2022/11/15 03:30:09;;;;;;;9.27;4.10;;;;;;;5.70;100.00;96027.41;5060388;28;20216;-70
2022/11/15 03:32:42;;;;;;;7.77;3.10;;;;;;;5.73;100.00;96017.47;5059105;28;20204;-70
2022/11/15 03:35:13;;;;;;;8.27;3.47;;;;;;;5.80;100.00;96020.31;5059897;28;20217;-70
2022/11/15 03:37:55;;;;;;;9.87;4.13;;;;;;;5.78;100.00;96023.09;5059384;28;20224;-70
2022/11/15 03:40:26;;;;;;;6.23;3.77;;;;;;;5.74;100.00;96016.50;5059996;28;20204;-69
2022/11/15 03:43:05;;;;;;;7.57;3.27;;;;;;;5.46;100.00;96027.25;5059325;28;20217;-69
2022/11/15 03:45:36;;;;;;;7.27;3.57;;;;;;;5.53;100.00;96023.84;5060053;28;20208;-69
2022/11/15 03:48:11;;;;;;;8.80;3.73;;;;;;;5.68;100.00;96031.97;5059417;28;20729;-70
2022/11/15 03:50:39;;;;;;;5.87;3.40;;;;;;;5.46;100.00;96037.69;5059476;28;20208;-69
2022/11/15 03:53:05;;;;;;;5.37;3.20;;;;;;;5.28;100.00;96033.44;5059068;28;20201;-70
2022/11/15 03:55:33;;;;;;;6.57;3.77;;;;;;;5.38;100.00;96026.34;5058913;28;20215;-70
2022/11/15 03:58:01;;;;;;;11.07;3.77;;;;;;;5.47;100.00;96031.47;5059707;28;20220;-70
2022/11/15 04:00:28;;;;;;;6.53;3.07;;;;;;;5.33;100.00;96020.75;5059593;28;20215;-69
2022/11/15 04:02:55;;;;;;;6.87;3.77;;;;;;;5.16;100.00;96027.63;5062451;28;20235;-70
2022/11/15 04:05:23;;;;;;;7.57;3.63;;;;;;;5.19;100.00;96036.94;5062790;28;20212;-70
2022/11/15 04:07:49;;;;;;;7.10;3.23;;;;;;;5.22;100.00;96027.03;5062397;28;20226;-70
2022/11/15 04:10:16;;;;;;;6.90;3.30;;;;;;;5.14;100.00;96026.97;5063752;28;20235;-69
2022/11/15 04:12:47;;;;;;;8.93;2.83;;;;;;;5.07;100.00;96020.69;5058558;28;20201;-70
2022/11/15 04:15:15;;;;;;;7.13;3.20;;;;;;;4.97;100.00;96021.72;5058907;28;20299;-70
2022/11/15 04:17:44;;;;;;;13.23;3.70;;;;;;;5.03;100.00;96013.31;5058860;28;20234;-69
2022/11/15 04:25:46;;;;;;;7.50;3.83;;;;;;;5.14;100.00;96000.84;5058671;28;20203;-70
2022/11/15 04:28:13;;;;;;;10.80;3.53;;;;;;;5.16;100.00;95998.06;5061802;28;20234;-69
2022/11/15 04:30:40;;;;;;;15.63;4.17;;;;;;;5.06;100.00;95998.13;5059679;28;20218;-69
2022/11/15 04:33:06;;;;;;;8.63;3.70;;;;;;;5.05;100.00;96004.34;5065839;28;20208;-70
2022/11/15 04:35:33;;;;;;;6.87;3.50;;;;;;;4.97;100.00;96006.06;5058634;28;20586;-69
2022/11/15 04:38:01;;;;;;;10.10;3.47;;;;;;;4.97;100.00;96004.25;5066192;28;20227;-69
2022/11/15 04:40:28;;;;;;;7.50;3.20;;;;;;;4.83;100.00;95996.94;5061598;28;20208;-69
2022/11/15 04:42:54;;;;;;;8.57;3.33;;;;;;;4.79;100.00;95992.16;5057730;28;20592;-69
2022/11/15 04:45:21;;;;;;;6.93;3.47;;;;;;;4.93;100.00;95987.25;5058630;28;20205;-70
2022/11/15 04:47:48;;;;;;;6.67;3.60;;;;;;;4.83;100.00;95988.28;5058251;28;20226;-70
2022/11/15 04:50:16;;;;;;;9.23;3.87;;;;;;;4.87;100.00;95981.81;5058334;28;20211;-70
2022/11/15 04:52:43;;;;;;;7.80;3.40;;;;;;;4.84;100.00;95982.91;5057945;28;20676;-70
2022/11/15 04:55:11;;;;;;;5.23;3.23;;;;;;;4.85;100.00;95983.75;5058555;28;20201;-70
2022/11/15 04:57:38;;;;;;;6.90;3.67;;;;;;;4.83;100.00;95985.69;5057767;28;20228;-69
2022/11/15 05:00:07;;;;;;;7.40;3.30;;;;;;;4.74;100.00;95986.56;5058038;28;20209;-70
2022/11/15 05:05:14;;;;;;;13.30;4.00;;;;;;;4.78;100.00;95987.91;5061623;28;20207;-70
2022/11/15 05:07:41;;;;;;;6.67;3.40;;;;;;;4.84;100.00;95977.69;5059008;28;20228;-70
2022/11/15 05:10:08;;;;;;;7.47;3.30;;;;;;;4.85;100.00;95979.34;5058111;28;20664;-69
2022/11/15 05:12:36;;;;;;;6.20;3.47;;;;;;;4.90;100.00;95976.28;5057111;28;20218;-70
2022/11/15 05:15:03;;;;;;;5.60;3.10;;;;;;;4.77;100.00;95985.47;5058084;28;20204;-70
2022/11/15 05:17:29;;;;;;;7.47;3.50;;;;;;;4.79;100.00;95983.53;5065567;28;20225;-70
2022/11/15 05:19:56;;;;;;;5.50;3.00;;;;;;;4.64;100.00;95980.59;5058230;28;20205;-69
2022/11/15 05:22:23;;;;;;;7.67;4.00;;;;;;;4.41;100.00;95973.34;5064854;28;20262;-69
2022/11/15 05:24:49;;;;;;;6.70;3.77;;;;;;;4.48;100.00;95976.97;5062609;28;20193;-69
2022/11/15 05:27:16;;;;;;;4.87;2.90;;;;;;;4.46;100.00;95976.31;5057826;28;20584;-70
2022/11/15 05:29:44;;;;;;;7.53;3.97;;;;;;;4.67;100.00;95974.25;5057489;28;20211;-70
2022/11/15 05:32:12;;;;;;;6.50;3.30;;;;;;;4.75;100.00;95966.50;5057029;28;20201;-70
2022/11/15 05:34:39;;;;;;;8.13;3.67;;;;;;;4.84;100.00;95962.03;5058671;28;20204;-69
2022/11/15 05:37:05;;;;;;;6.93;3.60;;;;;;;4.63;100.00;95962.47;5057571;28;20247;-69
2022/11/15 05:39:32;;;;;;;7.40;4.07;;;;;;;4.38;100.00;95956.19;5057042;28;20250;-70
2022/11/15 05:42:03;;;;;;;9.37;3.93;;;;;;;4.57;100.00;95944.78;5057228;28;20224;-69
2022/11/15 05:44:31;;;;;;;7.00;3.70;;;;;;;4.71;100.00;95946.91;5057611;28;20215;-69
2022/11/15 05:46:59;;;;;;;8.63;3.80;;;;;;;4.80;100.00;95951.22;5057197;28;20234;-69
2022/11/15 05:49:30;;;;;;;8.67;4.00;;;;;;;4.92;100.00;95956.88;5057323;28;20208;-69
2022/11/15 05:51:58;;;;;;;8.13;4.10;;;;;;;4.78;100.00;95958.41;5056980;28;20196;-69
2022/11/15 05:54:25;;;;;;;7.97;4.60;;;;;;;4.65;100.00;95963.16;5056898;28;20849;-69
2022/11/15 05:56:52;;;;;;;9.03;4.23;;;;;;;4.80;100.00;95959.88;5056739;28;20205;-69
2022/11/15 05:59:19;;;;;;;5.33;3.47;;;;;;;4.76;100.00;95952.50;5061330;28;20207;-69
2022/11/15 06:01:46;;;;;;;9.20;4.70;;;;;;;4.82;100.00;95951.91;5067784;28;20436;-69
2022/11/15 06:04:14;;;;;;;15.17;7.90;;;;;;;4.93;100.00;95950.69;5061097;28;20209;-69
2022/11/15 06:06:40;;;;;;;12.90;5.30;;;;;;;4.97;100.00;95949.44;5057183;28;20211;-69
2022/11/15 06:09:07;;;;;;;13.90;4.40;;;;;;;5.00;100.00;95946.53;5057305;28;21038;-69
2022/11/15 06:11:33;;;;;;;7.27;3.83;;;;;;;4.95;100.00;95953.16;5057485;28;20210;-69
2022/11/15 06:14:00;;;;;;;7.73;4.43;;;;;;;4.93;100.00;95952.50;5057088;28;20204;-69
2022/11/15 06:16:26;;;;;;;8.57;4.20;;;;;;;4.93;100.00;95950.69;5056879;28;20210;-69
2022/11/15 06:18:53;;;;;;;11.53;4.93;;;;;;;5.08;100.00;95943.19;5056349;28;20224;-69
2022/11/15 06:21:21;;;;;;;11.30;4.70;;;;;;;5.16;100.00;95945.84;5063244;28;20207;-69
2022/11/15 06:23:47;;;;;;;9.30;5.20;;;;;;;5.14;100.00;95951.22;5071649;28;20338;-69
2022/11/15 06:26:14;;;;;;;10.30;4.63;;;;;;;5.21;100.00;95954.84;5057772;28;20591;-69
2022/11/15 06:28:40;;;;;;;12.60;4.67;;;;;;;5.12;100.00;95952.34;5056183;28;20309;-69
2022/11/15 06:31:08;;;;;;;9.13;5.07;;;;;;;5.19;100.00;95946.34;5056808;28;20207;-69
2022/11/15 06:33:35;;;;;;;9.80;4.90;;;;;;;5.20;100.00;95950.59;5056870;28;20663;-69
2022/11/15 06:36:02;;;;;;;8.77;5.10;;;;;;;5.28;100.00;95949.84;5056382;28;20605;-68
2022/11/15 06:38:30;;;;;;;19.10;5.90;;;;;;;5.32;100.00;95959.00;5060717;28;20236;-69
2022/11/15 06:41:02;;;;;;;12.50;6.60;;;;;;;5.31;100.00;95942.53;5057112;28;20204;-69
2022/11/15 06:43:29;;;;;;;10.97;6.00;;;;;;;5.31;100.00;95947.75;5056211;28;20220;-69
2022/11/15 06:45:55;;;;;;;9.77;5.53;;;;;;;5.40;100.00;95954.69;5057205;28;20204;-69
2022/11/15 06:48:22;;;;;;;16.47;5.43;;;;;;;5.35;100.00;95951.69;5056257;28;20228;-69
2022/11/15 06:50:51;;;;;;;11.47;5.27;;;;;;;5.47;100.00;95955.69;5057094;28;20200;-69
2022/11/15 06:53:18;;;;;;;11.60;5.33;;;;;;;5.38;100.00;95946.16;5055805;28;20302;-69
2022/11/15 06:55:46;;;;;;;11.13;5.97;;;;;;;5.34;100.00;95947.44;5057988;28;20211;-69
2022/11/15 06:58:13;;;;;;;9.50;5.50;;;;;;;5.35;100.00;95943.88;5056433;28;20238;-69
2022/11/15 07:00:40;;;;;;;10.57;5.20;;;;;;;5.39;100.00;95947.00;5056236;28;20220;-69
2022/11/15 07:03:07;;;;;;;9.53;5.07;;;;;;;5.31;100.00;95945.16;5056034;28;20232;-68
2022/11/15 07:05:34;;;;;;;8.27;4.70;;;;;;;5.32;100.00;95945.94;5057705;28;20218;-68
2022/11/15 07:08:01;;;;;;;11.73;5.07;;;;;;;5.49;100.00;95935.47;5056377;28;20220;-69
2022/11/15 07:10:28;;;;;;;10.57;5.50;;;;;;;5.46;100.00;95930.56;5056297;28;20213;-69
2022/11/15 07:12:56;;;;;;;9.37;5.20;;;;;;;5.45;100.00;95929.72;5060112;28;20200;-69
2022/11/15 07:15:25;;;;;;;11.00;6.17;;;;;;;5.47;100.00;95940.03;5060103;28;20205;-69
2022/11/15 07:17:52;;;;;;;9.83;5.63;;;;;;;5.56;100.00;95939.09;5059479;28;20224;-69
2022/11/15 07:20:19;;;;;;;10.13;5.67;;;;;;;5.60;100.00;95925.59;5060895;28;20201;-66
2022/11/15 07:22:46;;;;;;;15.10;6.47;;;;;;;5.69;100.00;95934.28;5058329;28;20235;-69
2022/11/15 07:25:13;;;;;;;11.13;6.20;;;;;;;5.80;100.00;95926.22;5063942;28;20219;-69
2022/11/15 07:27:39;;;;;;;12.50;6.47;;;;;;;5.85;100.00;95922.16;5059603;28;20274;-67
2022/11/15 07:30:08;;;;;;;11.00;6.03;;;;;;;5.98;100.00;95927.75;5059953;28;20676;-68
2022/11/15 07:32:35;;;;;;;12.87;6.30;;;;;;;5.93;100.00;95926.59;5059435;28;20200;-69
2022/11/15 07:35:01;;;;;;;12.73;6.30;;;;;;;5.84;100.00;95932.75;5059969;28;20589;-69
2022/11/15 07:37:28;;;;;;;13.97;6.17;;;;;;;5.82;100.00;95927.69;5060104;28;20232;-68
2022/11/15 07:39:54;;;;;;;14.57;6.23;;;;;;;6.00;100.00;95919.78;5059842;28;20204;-69
2022/11/15 07:45:08;;;;;;;12.20;6.40;;;;;;;6.11;100.00;95926.34;5059788;28;20208;-69
2022/11/15 07:47:35;;;;;;;14.33;7.63;;;;;;;6.11;100.00;95931.59;5066787;28;20708;-69
2022/11/15 07:50:01;;;;;;;12.70;7.00;;;;;;;6.21;100.00;95929.69;5059307;28;20200;-69
2022/11/15 07:52:28;;;;;;;16.53;8.30;;;;;;;6.12;100.00;95928.00;5058861;28;20215;-69
2022/11/15 07:54:54;;;;;;;20.43;8.90;;;;;;;6.22;100.00;95926.09;5059407;28;20209;-69
2022/11/15 07:57:21;;;;;;;15.90;8.63;;;;;;;6.17;100.00;95925.75;5066147;28;20254;-69
2022/11/15 07:59:47;;;;;;;19.57;7.77;;;;;;;6.29;100.00;95926.28;5059318;28;20212;-69
2022/11/15 08:02:17;;;;;;;20.03;8.10;;;;;;;6.40;100.00;95936.44;5057839;28;20204;-69
2022/11/15 08:04:44;;;;;;;16.13;8.10;;;;;;;6.45;100.00;95940.19;5058674;28;20385;-69
2022/11/15 08:07:11;;;;;;;15.70;8.83;;;;;;;6.43;100.00;95936.09;5065284;28;20223;-69
2022/11/15 08:09:37;;;;;;;16.20;8.93;;;;;;;6.50;100.00;95927.47;5059485;28;20205;-69
2022/11/15 08:12:04;;;;;;;14.10;7.73;;;;;;;6.50;100.00;95930.06;5058270;28;20206;-69
2022/11/15 08:14:31;;;;;;;14.83;8.27;;;;;;;6.54;100.00;95934.00;5058232;28;20569;-69
2022/11/15 08:16:58;;;;;;;14.97;7.97;;;;;;;6.52;100.00;95935.16;5060228;28;20235;-69
2022/11/15 08:19:25;;;;;;;14.73;7.73;;;;;;;6.61;100.00;95935.03;5059231;28;20200;-69
2022/11/15 08:21:52;;;;;;;14.43;8.27;;;;;;;6.63;100.00;95930.44;5058520;28;20208;-69
2022/11/15 08:24:19;;;;;;;15.30;7.37;;;;;;;6.68;100.00;95921.13;5058645;28;20224;-69
2022/11/15 08:26:45;;;;;;;15.60;8.00;;;;;;;6.75;100.00;95914.25;5062439;28;20208;-69
2022/11/15 08:29:11;;;;;;;15.73;7.30;;;;;;;6.90;100.00;95914.47;5058424;28;20209;-69
2022/11/15 08:31:38;;;;;;;12.70;7.27;;;;;;;6.95;100.00;95906.91;5059376;28;20212;-69
2022/11/15 08:34:05;;;;;;;13.93;8.33;;;;;;;7.04;100.00;95898.06;5058543;28;20201;-69
2022/11/15 08:36:33;;;;;;;15.30;7.47;;;;;;;7.20;100.00;95890.22;5057316;28;20235;-69
2022/11/15 08:39:00;;;;;;;13.63;7.83;;;;;;;7.27;100.00;95886.78;5062567;28;20223;-69
2022/11/15 08:41:29;;;;;;;13.60;7.93;;;;;;;7.43;100.00;95881.50;5061918;28;20215;-68
2022/11/15 08:43:55;;;;;;;13.07;7.00;;;;;;;7.30;100.00;95874.16;5057791;28;21013;-67
2022/11/15 08:46:22;;;;;;;13.07;7.30;;;;;;;7.47;100.00;95873.16;5058872;28;20211;-68
2022/11/15 08:48:48;;;;;;;12.77;6.73;;;;;;;7.36;100.00;95878.72;5058600;28;20310;-69
2022/11/15 08:51:15;;;;;;;13.70;6.50;;;;;;;7.61;100.00;95869.00;5058337;28;20211;-69
2022/11/15 08:53:43;;;;;;;13.07;6.80;;;;;;;7.82;100.00;95869.31;5057603;28;20197;-69
2022/11/15 08:56:11;;;;;;;13.43;7.03;;;;;;;7.90;100.00;95852.53;5058561;28;20652;-69
2022/11/15 08:58:37;;;;;;;14.13;7.40;;;;;;;7.99;100.00;95855.94;5057419;28;20227;-69
2022/11/15 09:01:04;;;;;;;17.60;7.23;;;;;;;8.08;100.00;95852.28;5058449;28;20204;-69
2022/11/15 09:03:32;;;;;;;13.97;7.00;;;;;;;8.15;100.00;95853.28;5057699;28;20235;-69
2022/11/15 09:06:00;;;;;;;13.37;6.67;;;;;;;8.35;100.00;95855.31;5058175;28;20213;-69
2022/11/15 09:08:29;;;;;;;12.63;6.70;;;;;;;8.33;100.00;95856.47;5062212;28;20222;-69
2022/11/15 09:10:57;;;;;;;13.00;7.30;;;;;;;8.51;100.00;95845.53;5060726;28;20638;-70
2022/11/15 09:13:24;;;;;;;11.73;6.87;;;;;;;8.62;100.00;95844.31;5057302;28;20204;-69
2022/11/15 09:15:50;;;;;;;14.73;7.00;;;;;;;8.58;100.00;95840.41;5058028;28;20196;-70
2022/11/15 09:18:17;;;;;;;11.27;6.27;;;;;;;8.64;100.00;95839.69;5057779;28;20953;-70
2022/11/15 09:20:43;;;;;;;12.60;6.27;;;;;;;8.73;100.00;95833.38;5066436;28;20203;-69
2022/11/15 09:23:10;;;;;;;13.13;6.37;;;;;;;8.70;100.00;95834.53;5057084;28;20670;-69
2022/11/15 09:25:36;;;;;;;15.90;6.47;;;;;;;8.74;100.00;95841.06;5072340;28;20318;-68
2022/11/15 09:28:08;;;;;;;13.27;6.40;;;;;;;8.80;100.00;95845.63;5058750;28;20224;-70
2022/11/15 09:30:35;;;;;;;15.83;6.47;;;;;;;8.93;100.00;95843.25;5065435;28;21012;-69
2022/11/15 09:33:07;;;;;;;14.63;7.53;;;;;;;9.20;100.00;95842.69;5061131;28;20210;-69
2022/11/15 09:35:34;;;;;;;14.40;6.17;;;;;;;9.29;100.00;95837.19;5057780;28;20770;-69
2022/11/15 09:38:01;;;;;;;13.30;6.37;;;;;;;9.31;100.00;95832.53;5063817;28;20732;-69
2022/11/15 09:40:27;;;;;;;15.57;6.77;;;;;;;9.44;100.00;95835.38;5057123;28;20211;-69
2022/11/15 09:43:11;;;;;;;14.23;6.73;;;;;;;9.68;100.00;95822.78;5056496;28;20208;-69
2022/11/15 09:45:49;;;;;;;11.90;5.87;;;;;;;9.51;100.00;95823.16;5058042;28;20217;-70
2022/11/15 09:48:40;;;;;;;12.57;5.80;;;;;;;9.66;100.00;95815.25;5060756;28;20381;-70
2022/11/15 09:51:13;;;;;;;10.10;5.87;;;;;;;9.84;100.00;95817.34;5056952;28;20247;-70
2022/11/15 09:53:44;;;;;;;14.67;5.90;;;;;;;9.89;100.00;95816.78;5056069;28;20373;-70
2022/11/15 09:56:17;;;;;;;10.93;5.83;;;;;;;9.91;100.00;95823.50;5056405;28;20209;-70
2022/11/15 09:58:57;;;;;;;10.83;6.23;;;;;;;10.10;100.00;95815.06;5058989;28;20732;-70
2022/11/15 10:01:36;;;;;;;9.27;6.10;;;;;;;9.98;100.00;95815.72;5056147;28;20707;-70
2022/11/15 10:04:02;;;;;;;9.27;5.60;;;;;;;9.86;100.00;95818.00;5055596;28;20235;-69
2022/11/15 10:06:29;;;;;;;10.70;5.87;;;;;;;9.82;100.00;95814.06;5056753;28;20698;-70
2022/11/15 10:09:02;;;;;;;10.50;6.37;;;;;;;9.97;100.00;95812.28;5057215;28;20278;-70
2022/11/15 10:11:31;;;;;;;11.17;6.33;;;;;;;9.86;100.00;95812.72;5057299;28;20201;-70
2022/11/15 10:14:03;;;;;;;10.27;6.23;;;;;;;9.77;100.00;95813.00;5056631;28;20200;-69
2022/11/15 10:16:54;;;;;;;11.27;6.43;;;;;;;9.56;100.00;95817.34;5057242;28;20555;-70
2022/11/15 10:19:29;;;;;;;12.03;6.87;;;;;;;9.29;100.00;95816.16;5057248;28;20204;-69
2022/11/15 10:22:06;;;;;;;18.47;7.83;;;;;;;9.32;100.00;95810.53;5064394;28;20685;-69
2022/11/15 10:24:37;;;;;;;15.80;7.73;;;;;;;9.07;100.00;95804.88;5060879;28;20207;-69
2022/11/15 10:27:10;;;;;;;14.80;8.33;;;;;;;9.16;100.00;95805.44;5062262;28;20224;-70
2022/11/15 10:29:44;;;;;;;14.10;7.97;;;;;;;9.25;100.00;95793.00;5057392;28;20196;-70
2022/11/15 10:32:12;;;;;;;15.37;8.43;;;;;;;9.34;100.00;95789.31;5057506;28;20632;-69
2022/11/15 10:34:38;;;;;;;13.13;7.13;;;;;;;9.27;100.00;95783.16;5055649;28;21134;-69
2022/11/15 10:37:05;;;;;;;12.33;7.70;;;;;;;9.31;100.00;95782.59;5056515;28;20612;-69
2022/11/15 10:39:33;;;;;;;12.83;7.13;;;;;;;9.45;100.00;95781.78;5056525;28;20215;-69
2022/11/15 10:42:16;;;;;;;16.00;7.27;;;;;;;9.58;100.00;95774.06;5056477;28;20213;-69
2022/11/15 10:44:45;;;;;;;14.93;8.00;;;;;;;9.57;100.00;95769.00;5064358;28;20222;-69
2022/11/15 10:47:30;;;;;;;14.07;8.20;;;;;;;9.88;100.00;95758.09;5057161;28;20231;-69
2022/11/15 10:50:04;;;;;;;12.60;7.33;;;;;;;9.98;100.00;95756.00;5056463;28;20221;-70
2022/11/15 10:52:32;;;;;;;13.50;7.77;;;;;;;10.19;100.00;95737.63;5056394;28;20204;-69
2022/11/15 10:55:04;;;;;;;13.30;7.30;;;;;;;9.91;100.00;95735.84;5059480;28;20696;-70
2022/11/15 10:57:34;;;;;;;12.80;7.10;;;;;;;10.15;100.00;95720.56;5056825;28;20231;-70
2022/11/15 11:00:08;;;;;;;10.43;6.57;;;;;;;10.52;100.00;95709.78;5061794;28;20204;-70
2022/11/15 11:02:37;;;;;;;12.17;7.07;;;;;;;10.52;100.00;95707.16;5059493;28;20234;-70
2022/11/15 11:05:07;;;;;;;16.97;7.10;;;;;;;10.74;100.00;95696.38;5060226;28;20230;-70
2022/11/15 11:07:36;;;;;;;10.87;6.70;;;;;;;10.65;100.00;95702.78;5060517;28;20230;-70
2022/11/15 11:10:07;;;;;;;11.37;6.43;;;;;;;10.82;100.00;95705.97;5060434;28;20209;-70
2022/11/15 11:12:34;;;;;;;9.97;5.60;;;;;;;10.75;96.82;95710.41;5059858;28;20200;-70
2022/11/15 11:15:12;;;;;;;9.43;4.60;;;;;;;10.86;92.11;95702.78;5069571;28;20220;-70
2022/11/15 11:17:54;;;;;;;8.10;4.83;;;;;;;11.13;92.35;95712.50;5060154;28;20239;-70
2022/11/15 11:20:28;;;;;;;9.53;5.30;;;;;;;11.18;90.86;95710.09;5059833;28;20204;-69
2022/11/15 11:23:13;;;;;;;9.87;5.17;;;;;;;11.35;90.14;95708.78;5066295;28;20200;-70
2022/11/15 11:25:47;;;;;;;10.33;5.83;;;;;;;11.41;93.09;95705.38;5060481;28;20204;-69
2022/11/15 11:28:30;;;;;;;11.70;6.37;;;;;;;11.67;93.17;95703.69;5059716;28;20224;-70
2022/11/15 11:31:21;;;;;;;9.93;5.97;;;;;;;11.57;92.13;95696.16;5060253;28;20209;-70
2022/11/15 11:33:58;;;;;;;11.27;6.27;;;;;;;11.66;92.34;95694.19;5058923;28;20211;-70
2022/11/15 11:36:32;;;;;;;9.97;5.93;;;;;;;11.64;91.67;95693.53;5059559;28;20206;-70
2022/11/15 11:39:17;;;;;;;12.23;5.70;;;;;;;11.72;90.15;95693.38;5059852;28;20228;-70
2022/11/15 11:41:52;;;;;;;13.70;6.67;;;;;;;11.82;92.32;95691.97;5059321;28;20215;-70
2022/11/15 11:44:29;;;;;;;11.07;6.10;;;;;;;11.71;90.93;95687.28;5058855;28;21098;-70
2022/11/15 11:47:01;;;;;;;9.43;5.87;;;;;;;11.84;92.10;95689.16;5064178;28;20211;-70
2022/11/15 11:49:35;;;;;;;10.60;6.33;;;;;;;11.85;91.80;95688.97;5058935;28;20208;-70
2022/11/15 11:52:09;;;;;;;16.30;6.13;;;;;;;11.74;91.24;95681.59;5065204;28;20199;-70
2022/11/15 11:54:44;;;;;;;11.23;5.27;;;;;;;11.78;91.19;95671.47;5057469;28;20197;-70